Portada
METAR-TAF:

METAR-TAF

Aeroports :

Guilin, Xina

latitud: 25-20N, longitud: 110-18E, altitud: 166 m

Observació

L'informe es va fer fa 1 hora i 5 minuts, a les 12:00 UTC
Vent 4 kt del Oest/Nord-Oest, variant entre Oest i Nord-Oest
Temperatura 14°C
Humitat 88%
Pressió 1015 hPa
Visibilitat 10 km o més
sense núvols per sota de 1500 mi sense presència de cumulonimbus.

METAR: ZGKL 311200Z 30002MPS 260V320 CAVOK 14/12 Q1015 NOSIG

Hora: 21:05 (13:05 UTC)

Pronòstic

L'informe es va fer fa 4 hores i 0 minuts, a les 09:05 UTC
Pronòstic vàlid del 31 a les 12 UTC al 01 a les 12 UTC
Vent 6 kt del Nord-Est
Visibilitat: 5000 m
Núvols disperses a una alçada de 3000 ft
boirina

TAF: ZGKL 310905Z 3112/0112 05003MPS 5000 BR SCT030 TX15/0107Z TN07/3122Z

Observacions i pronòstics meteorològics de més de 4000 aeroports (METAR i TAF).

Les estacions disponibles són els punts grocs i vermells al mapa.

Posi el ratolí al punt desitjat per veure el nom de l'estació.

Feu clic per veure les observacions i els pronòstics meteorològics.

Per canviar el mapa: feu clic els botons verds amb una creu de color negre per apropar; al botó verd amb un guió per allunyar la imatge; o en les fletxes verdes per a mapes adjacents.


METAR-TAF: